Time;durP1;ratioP1;P1;durP2;ratioP2;P2;SDS_P1;SDS_P2;PMS_P1;PMS_P2;Temp;Humidity;BMP_temperature;BMP_pressure;BME280_temperature;BME280_humidity;BME280_pressure;Samples;Min_cycle;Max_cycle;Signal;HPM_P1;HPM_P2
2023/01/20 00:01:37;;;;;;;;;;;;;;;-144.99;89.13;52609.13;5050925;28;19975;-75
2023/01/20 00:04:03;;;;;;;;;;;;;;;-144.99;89.54;52619.31;5051272;28;20431;-75
2023/01/20 00:06:30;;;;;;;;;;;;;;;-144.99;89.12;52607.09;5048680;28;20536;-75
2023/01/20 00:08:59;;;;;;;;;;;;;;;-144.99;88.96;52566.31;5049601;28;20033;-74
2023/01/20 00:11:26;;;;;;;;;;;;;;;-144.99;87.76;52541.84;5055838;28;19929;-75
2023/01/20 00:13:54;;;;;;;;;;;;;;;-144.99;88.48;52594.84;5078934;28;19925;-74
2023/01/20 00:16:20;;;;;;;;;;;;;;;-144.99;88.34;52586.69;5049380;28;19925;-76
2023/01/20 00:18:47;;;;;;;;;;;;;;;-144.99;88.33;52550.00;5049414;28;20403;-75
2023/01/20 00:21:15;;;;;;;;;;;;;;;-144.99;88.07;52570.38;5049770;28;19990;-74
2023/01/20 00:23:42;;;;;;;;;;;;;;;-144.99;87.93;52603.00;5049368;28;19925;-74
2023/01/20 00:26:11;;;;;;;;;;;;;;;-144.99;88.95;52586.69;5048720;28;19925;-74
2023/01/20 00:28:38;;;;;;;;;;;;;;;-144.99;89.77;52590.78;5049341;28;19929;-74
2023/01/20 00:31:11;;;;;;;;;;;;;;;-144.99;89.87;52594.84;5048931;28;19925;-74
2023/01/20 00:33:38;;;;;;;;;;;;;;;-144.99;89.81;52570.38;5047947;28;21326;-74
2023/01/20 00:36:05;;;;;;;;;;;;;;;-144.99;91.04;52605.03;5049429;28;19986;-74
2023/01/20 00:38:31;;;;;;;;;;;;;;;-144.99;90.89;52558.16;5049179;28;19968;-75
2023/01/20 00:40:58;;;;;;;;;;;;;;;-144.99;91.25;52562.25;5050820;28;19972;-75
2023/01/20 00:43:26;;;;;;;;;;;;;;;-144.99;91.68;52586.69;5051765;28;20289;-75
2023/01/20 00:45:52;;;;;;;;;;;;;;;-144.99;91.24;52574.47;5052273;28;19970;-74
2023/01/20 00:48:19;;;;;;;;;;;;;;;-144.99;91.21;52578.53;5063091;28;19925;-75
2023/01/20 00:50:45;;;;;;;;;;;;;;;-144.99;91.80;52576.50;5076489;28;19925;-74
2023/01/20 00:53:12;;;;;;;;;;;;;;;-144.99;91.87;52609.13;5049942;28;20387;-74
2023/01/20 00:55:38;;;;;;;;;;;;;;;-144.99;92.22;52590.78;5047930;28;20395;-75
2023/01/20 00:58:05;;;;;;;;;;;;;;;-144.99;91.63;52603.00;5049717;28;19979;-74
2023/01/20 01:00:32;;;;;;;;;;;;;;;-144.99;90.12;52592.81;5055269;28;19979;-74
2023/01/20 01:02:59;;;;;;;;;;;;;;;-144.99;89.85;52578.53;5055015;28;19984;-74
2023/01/20 01:05:25;;;;;;;;;;;;;;;-144.99;89.17;52550.00;5047904;28;19956;-75
2023/01/20 01:07:52;;;;;;;;;;;;;;;-144.99;88.72;52615.25;5050454;28;19956;-74
2023/01/20 01:10:18;;;;;;;;;;;;;;;-144.99;88.71;52598.94;5051978;28;20388;-73
2023/01/20 01:12:45;;;;;;;;;;;;;;;-144.99;88.99;52570.38;5052219;28;19960;-73
2023/01/20 01:15:12;;;;;;;;;;;;;;;-144.99;89.56;52578.53;5051503;28;19997;-73
2023/01/20 01:17:39;;;;;;;;;;;;;;;-144.99;89.65;52586.69;5052960;28;19956;-73
2023/01/20 01:20:06;;;;;;;;;;;;;;;-144.99;91.24;52586.69;5054021;28;19979;-75
2023/01/20 01:22:33;;;;;;;;;;;;;;;-144.99;91.29;52615.25;5057006;28;19983;-73
2023/01/20 01:24:59;;;;;;;;;;;;;;;-144.99;91.11;52562.25;5072658;28;19955;-74
2023/01/20 01:27:29;;;;;;;;;;;;;;;-144.99;91.40;52554.09;5077264;28;19913;-74
2023/01/20 01:29:55;;;;;;;;;;;;;;;-144.99;91.45;52545.94;5067397;28;20041;-74
2023/01/20 01:32:22;;;;;;;;;;;;;;;-144.99;91.80;52607.09;5065888;28;19932;-74
2023/01/20 01:34:50;;;;;;;;;;;;;;;-144.99;92.21;52558.16;5064961;28;19928;-74
2023/01/20 01:37:16;;;;;;;;;;;;;;;-144.99;92.49;52592.81;5054958;28;19928;-73
2023/01/20 01:39:43;;;;;;;;;;;;;;;-144.99;92.15;52592.81;5053577;28;19971;-73
2023/01/20 01:42:11;;;;;;;;;;;;;;;-144.99;92.08;52572.44;5056776;28;19948;-74
2023/01/20 01:44:38;;;;;;;;;;;;;;;-144.99;91.99;52607.09;5057828;28;19964;-72
2023/01/20 01:47:05;;;;;;;;;;;;;;;-144.99;92.24;52574.47;5054798;28;19960;-72
2023/01/20 01:49:32;;;;;;;;;;;;;;;-144.99;92.28;52594.84;5048668;28;19968;-72
2023/01/20 01:52:01;;;;;;;;;;;;;;;-144.99;92.61;52603.00;5053450;28;19968;-71
2023/01/20 01:54:30;;;;;;;;;;;;;;;-144.99;92.80;52590.78;5051208;28;20388;-72
2023/01/20 01:56:57;;;;;;;;;;;;;;;-144.99;92.82;52566.31;5053705;28;19951;-73
2023/01/20 01:59:23;;;;;;;;;;;;;;;-144.99;91.65;52590.78;5055065;28;20537;-73
2023/01/20 02:01:51;;;;;;;;;;;;;;;-144.99;91.95;52545.94;5064107;28;19932;-74
2023/01/20 02:04:19;;;;;;;;;;;;;;;-144.99;91.88;52574.47;5063584;28;19936;-73
2023/01/20 02:06:48;;;;;;;;;;;;;;;-144.99;91.89;52566.31;5052105;28;19925;-73
2023/01/20 02:09:16;;;;;;;;;;;;;;;-144.99;91.75;52586.69;5051609;28;19978;-71
2023/01/20 02:11:47;;;;;;;;;;;;;;;-144.99;91.59;52570.38;5051022;28;20299;-72
2023/01/20 02:14:14;;;;;;;;;;;;;;;-144.99;91.96;52578.53;5049020;28;19928;-74
2023/01/20 02:16:44;;;;;;;;;;;;;;;-144.99;93.03;52609.13;5052327;28;19967;-75
2023/01/20 02:19:28;;;;;;;;;;;;;;;-144.99;94.26;52578.53;5051557;28;19975;-74
2023/01/20 02:22:03;;;;;;;;;;;;;;;-144.99;94.40;52578.53;5053286;28;20417;-75
2023/01/20 02:24:50;;;;;;;;;;;;;;;-144.99;94.13;52582.63;5061187;28;19932;-75
2023/01/20 02:27:22;;;;;;;;;;;;;;;-144.99;94.79;52594.84;5051146;28;19928;-74
2023/01/20 02:30:07;;;;;;;;;;;;;;;-144.99;94.99;52619.31;5048521;28;20460;-74
2023/01/20 02:32:41;;;;;;;;;;;;;;;-144.99;95.02;52603.00;5046479;28;19971;-74
2023/01/20 02:35:10;;;;;;;;;;;;;;;-144.99;95.87;52590.78;5050540;28;19944;-74
2023/01/20 02:37:42;;;;;;;;;;;;;;;-144.99;96.16;52594.84;5066343;28;19912;-76
2023/01/20 02:40:15;;;;;;;;;;;;;;;-144.99;95.93;52627.47;5077053;28;19921;-76
2023/01/20 02:42:45;;;;;;;;;;;;;;;-144.99;96.00;52603.00;5074904;28;19928;-75
2023/01/20 02:45:15;;;;;;;;;;;;;;;-144.99;96.62;52603.00;5075873;28;19928;-74
2023/01/20 02:47:46;;;;;;;;;;;;;;;-144.99;95.60;52588.75;5073881;28;20343;-74
2023/01/20 02:50:14;;;;;;;;;;;;;;;-144.99;95.95;52615.25;5068245;28;19947;-74
2023/01/20 02:52:42;;;;;;;;;;;;;;;-144.99;96.70;52590.78;5064310;28;19929;-73
2023/01/20 02:55:10;;;;;;;;;;;;;;;-144.99;95.75;52570.38;5063806;28;19933;-74
2023/01/20 02:57:42;;;;;;;;;;;;;;;-144.99;96.32;52639.69;5065761;28;19936;-74
2023/01/20 03:00:11;;;;;;;;;;;;;;;-144.99;95.49;52594.84;5061503;28;20701;-73
2023/01/20 03:02:40;;;;;;;;;;;;;;;-144.99;95.89;52594.84;5048441;28;20260;-73
2023/01/20 03:05:10;;;;;;;;;;;;;;;-144.99;96.05;52574.47;5050374;28;19960;-74
2023/01/20 03:07:37;;;;;;;;;;;;;;;-144.99;95.45;52570.38;5051279;28;20507;-74
2023/01/20 03:10:06;;;;;;;;;;;;;;;-144.99;95.04;52562.25;5050797;28;20312;-74
2023/01/20 03:12:36;;;;;;;;;;;;;;;-144.99;94.95;52580.59;5049484;28;19925;-74
2023/01/20 03:15:02;;;;;;;;;;;;;;;-144.99;94.41;52570.38;5060767;28;19935;-74
2023/01/20 03:17:29;;;;;;;;;;;;;;;-144.99;94.34;52582.63;5072432;28;19928;-74
2023/01/20 03:19:58;;;;;;;;;;;;;;;-144.99;95.21;52566.31;5051972;28;19925;-74
2023/01/20 03:22:25;;;;;;;;;;;;;;;-144.99;95.26;52574.47;5048390;28;19924;-74
2023/01/20 03:24:52;;;;;;;;;;;;;;;-144.99;95.54;52574.47;5049653;28;19933;-72
2023/01/20 03:27:19;;;;;;;;;;;;;;;-144.99;95.35;52603.00;5051244;28;19929;-73
2023/01/20 03:29:46;;;;;;;;;;;;;;;-144.99;95.32;52558.16;5051670;28;19928;-73
2023/01/20 03:32:13;;;;;;;;;;;;;;;-144.99;95.59;52611.16;5051454;28;20400;-73
2023/01/20 03:34:41;;;;;;;;;;;;;;;-144.99;95.87;52619.31;5048577;28;19960;-72
2023/01/20 03:37:08;;;;;;;;;;;;;;;-144.99;95.82;52594.84;5051639;28;19925;-74
2023/01/20 03:39:38;;;;;;;;;;;;;;;-144.99;96.01;52568.34;5051603;28;19925;-74
2023/01/20 03:42:08;;;;;;;;;;;;;;;-144.99;95.93;52574.47;5051535;28;20292;-73
2023/01/20 03:44:43;;;;;;;;;;;;;;;-144.99;95.18;52598.94;5051446;28;19960;-72
2023/01/20 03:47:15;;;;;;;;;;;;;;;-144.99;95.52;52598.94;5061637;28;19940;-73
2023/01/20 03:49:46;;;;;;;;;;;;;;;-144.99;95.09;52578.53;5059236;28;19929;-72
2023/01/20 03:52:17;;;;;;;;;;;;;;;-144.99;95.06;52586.69;5070726;28;19912;-74
2023/01/20 03:54:48;;;;;;;;;;;;;;;-144.99;95.25;52594.84;5063833;28;19948;-73
2023/01/20 03:57:17;;;;;;;;;;;;;;;-144.99;95.25;52600.97;5048179;28;20040;-73
2023/01/20 03:59:44;;;;;;;;;;;;;;;-144.99;95.91;52578.53;5059545;28;19929;-73
2023/01/20 04:02:11;;;;;;;;;;;;;;;-144.99;96.34;52598.94;5065756;28;20053;-73
2023/01/20 04:04:39;;;;;;;;;;;;;;;-144.99;97.20;52603.00;5068242;28;19932;-72
2023/01/20 04:07:06;;;;;;;;;;;;;;;-144.99;96.56;52566.31;5070639;28;19943;-73
2023/01/20 04:09:35;;;;;;;;;;;;;;;-144.99;96.26;52574.47;5070278;28;19932;-73
2023/01/20 04:12:03;;;;;;;;;;;;;;;-144.99;95.81;52590.78;5067017;28;19932;-74
2023/01/20 04:14:29;;;;;;;;;;;;;;;-144.99;95.90;52586.69;5065234;28;20557;-73
2023/01/20 04:16:57;;;;;;;;;;;;;;;-144.99;95.52;52594.84;5067064;28;19925;-73
2023/01/20 04:19:23;;;;;;;;;;;;;;;-144.99;95.72;52525.56;5060399;28;19924;-74
2023/01/20 04:21:53;;;;;;;;;;;;;;;-144.99;95.96;52554.09;5070485;28;19947;-74
2023/01/20 04:24:22;;;;;;;;;;;;;;;-144.99;96.12;52541.84;5070839;28;19986;-72
2023/01/20 04:26:48;;;;;;;;;;;;;;;-144.99;95.58;52586.69;5071596;28;19916;-74
2023/01/20 04:29:16;;;;;;;;;;;;;;;-144.99;95.91;52578.53;5073441;28;19944;-72
2023/01/20 04:31:43;;;;;;;;;;;;;;;-144.99;96.57;52582.63;5072310;28;19917;-74
2023/01/20 04:34:12;;;;;;;;;;;;;;;-144.99;97.54;52590.78;5073345;28;20307;-73
2023/01/20 04:36:38;;;;;;;;;;;;;;;-144.99;97.57;52525.56;5069442;28;19929;-74
2023/01/20 04:39:05;;;;;;;;;;;;;;;-144.99;96.75;52531.66;5072044;28;19932;-74
2023/01/20 04:41:31;;;;;;;;;;;;;;;-144.99;97.04;52558.16;5064044;28;19925;-75
2023/01/20 04:43:58;;;;;;;;;;;;;;;-144.99;96.39;52568.34;5052137;28;20273;-73
2023/01/20 04:46:26;;;;;;;;;;;;;;;-144.99;96.22;52570.38;5053096;28;20009;-74
2023/01/20 04:48:52;;;;;;;;;;;;;;;-144.99;95.98;52556.13;5049607;28;19953;-74
2023/01/20 04:51:19;;;;;;;;;;;;;;;-144.99;96.80;52594.84;5051989;28;19964;-74
2023/01/20 04:53:45;;;;;;;;;;;;;;;-144.99;97.30;52603.00;5050498;28;19968;-75
2023/01/20 04:56:12;;;;;;;;;;;;;;;-144.99;97.09;52611.16;5052907;28;19968;-73
2023/01/20 04:58:38;;;;;;;;;;;;;;;-144.99;96.47;52582.63;5053814;28;19935;-73
2023/01/20 05:01:05;;;;;;;;;;;;;;;-144.99;97.35;52588.75;5050243;28;19960;-75
2023/01/20 05:03:33;;;;;;;;;;;;;;;-144.99;96.24;52574.47;5052225;28;19972;-76
2023/01/20 05:05:59;;;;;;;;;;;;;;;-144.99;96.98;52578.53;5066329;28;19912;-74
2023/01/20 05:08:26;;;;;;;;;;;;;;;-144.99;96.56;52521.47;5075293;28;19915;-75
2023/01/20 05:10:52;;;;;;;;;;;;;;;-144.99;96.31;52558.16;5053434;28;19995;-75
2023/01/20 05:13:19;;;;;;;;;;;;;;;-144.99;96.39;52562.25;5053464;28;19956;-75
2023/01/20 05:15:45;;;;;;;;;;;;;;;-144.99;96.26;52578.53;5055770;28;19924;-74
2023/01/20 05:18:12;;;;;;;;;;;;;;;-144.99;96.20;52556.13;5061353;28;19968;-74
2023/01/20 05:20:39;;;;;;;;;;;;;;;-144.99;96.14;52600.97;5058508;28;20352;-75
2023/01/20 05:23:06;;;;;;;;;;;;;;;-144.99;95.50;52582.63;5058422;28;20438;-74
2023/01/20 05:25:33;;;;;;;;;;;;;;;-144.99;94.94;52574.47;5051668;28;19983;-75
2023/01/20 05:27:59;;;;;;;;;;;;;;;-144.99;95.24;52586.69;5053766;28;19964;-73
2023/01/20 05:30:26;;;;;;;;;;;;;;;-144.99;95.65;52560.19;5073693;28;19925;-74
2023/01/20 05:32:52;;;;;;;;;;;;;;;-144.99;95.79;52598.94;5081036;28;19924;-74
2023/01/20 05:35:19;;;;;;;;;;;;;;;-144.99;95.29;52570.38;5081138;28;19920;-74
2023/01/20 05:37:47;;;;;;;;;;;;;;;-144.99;96.47;52568.34;5081042;28;19931;-75
2023/01/20 05:40:13;;;;;;;;;;;;;;;-144.99;95.44;52562.25;5080989;28;19909;-75
2023/01/20 05:42:40;;;;;;;;;;;;;;;-144.99;95.16;52582.63;5080585;28;19932;-75
2023/01/20 05:45:08;;;;;;;;;;;;;;;-144.99;95.68;52582.63;5075903;28;19925;-74
2023/01/20 05:47:34;;;;;;;;;;;;;;;-144.99;95.21;52574.47;5072080;28;20016;-74
2023/01/20 05:50:01;;;;;;;;;;;;;;;-144.99;96.02;52562.25;5070292;28;20050;-74
2023/01/20 05:54:58;;;;;;;;;;;;;;;-144.99;96.27;52639.69;5067321;28;19965;-74
2023/01/20 05:57:24;;;;;;;;;;;;;;;-144.99;96.95;52582.63;5073329;28;20042;-74
2023/01/20 05:59:51;;;;;;;;;;;;;;;-144.99;96.63;52570.38;5078228;28;19932;-75
2023/01/20 06:02:18;;;;;;;;;;;;;;;-144.99;96.16;52570.38;5072811;28;20392;-76
2023/01/20 06:04:44;;;;;;;;;;;;;;;-144.99;96.19;52603.00;5073523;28;20403;-77
2023/01/20 06:07:11;;;;;;;;;;;;;;;-144.99;95.50;52562.25;5074194;28;19970;-75
2023/01/20 06:09:37;;;;;;;;;;;;;;;-144.99;94.65;52574.47;5072405;28;19947;-75
2023/01/20 06:12:05;;;;;;;;;;;;;;;-144.99;95.54;52527.59;5072289;28;19956;-75
2023/01/20 06:14:32;;;;;;;;;;;;;;;-144.99;95.62;52586.69;5072719;28;19955;-75
2023/01/20 06:16:58;;;;;;;;;;;;;;;-144.99;95.95;52570.38;5073225;28;19977;-74
2023/01/20 06:19:25;;;;;;;;;;;;;;;-144.99;96.51;52533.69;5074167;28;20396;-75
2023/01/20 06:21:52;;;;;;;;;;;;;;;-144.99;96.30;52582.63;5069552;28;20380;-75
2023/01/20 06:24:19;;;;;;;;;;;;;;;-144.99;96.46;52570.38;5070601;28;19931;-75
2023/01/20 06:26:45;;;;;;;;;;;;;;;-144.99;96.42;52550.00;5074052;28;20484;-75
2023/01/20 06:29:13;;;;;;;;;;;;;;;-144.99;95.91;52529.63;5071178;28;19970;-75
2023/01/20 06:31:39;;;;;;;;;;;;;;;-144.99;95.78;52588.75;5072637;28;19929;-76
2023/01/20 06:34:06;;;;;;;;;;;;;;;-144.99;95.85;52558.16;5073086;28;19982;-75
2023/01/20 06:36:32;;;;;;;;;;;;;;;-144.99;96.56;52558.16;5070329;28;19936;-75
2023/01/20 06:38:59;;;;;;;;;;;;;;;-144.99;96.39;52562.25;5073203;28;20362;-75
2023/01/20 06:41:25;;;;;;;;;;;;;;;-144.99;96.16;52580.59;5073128;28;19924;-76
2023/01/20 06:43:52;;;;;;;;;;;;;;;-144.99;96.24;52568.34;5092559;28;19925;-76
2023/01/20 06:46:21;;;;;;;;;;;;;;;-144.99;96.26;52576.50;5092832;28;19947;-76
2023/01/20 06:48:48;;;;;;;;;;;;;;;-144.99;95.82;52598.94;5092315;28;19912;-77
2023/01/20 06:51:16;;;;;;;;;;;;;;;-144.99;95.80;52603.00;5090070;28;19924;-76
2023/01/20 06:53:43;;;;;;;;;;;;;;;-144.99;96.82;52582.63;5090404;28;19925;-76
2023/01/20 06:56:10;;;;;;;;;;;;;;;-144.99;96.02;52574.47;5077612;28;19931;-76
2023/01/20 06:58:36;;;;;;;;;;;;;;;-144.99;96.21;52611.16;5073076;28;19988;-76
2023/01/20 07:01:05;;;;;;;;;;;;;;;-144.99;95.89;52578.53;5072245;28;19972;-76
2023/01/20 07:03:33;;;;;;;;;;;;;;;-144.99;95.44;52574.47;5067613;28;19929;-76
2023/01/20 07:06:00;;;;;;;;;;;;;;;-144.99;94.27;52566.31;5070919;28;20009;-75
2023/01/20 07:08:26;;;;;;;;;;;;;;;-144.99;94.56;52594.84;5071845;28;19963;-75
2023/01/20 07:10:53;;;;;;;;;;;;;;;-144.99;93.92;52598.94;5072099;28;19959;-75
2023/01/20 07:13:19;;;;;;;;;;;;;;;-144.99;94.18;52570.38;5070011;28;19928;-74
2023/01/20 07:15:46;;;;;;;;;;;;;;;-144.99;93.73;52554.09;5081803;28;19946;-76
2023/01/20 07:18:12;;;;;;;;;;;;;;;-144.99;93.63;52558.16;5092698;28;19934;-76
2023/01/20 07:20:42;;;;;;;;;;;;;;;-144.99;93.25;52545.94;5094239;28;19925;-76
2023/01/20 07:23:08;;;;;;;;;;;;;;;-144.99;92.49;52568.34;5086202;28;19978;-76
2023/01/20 07:25:36;;;;;;;;;;;;;;;-144.99;92.54;52574.47;5072303;28;19968;-76
2023/01/20 07:28:03;;;;;;;;;;;;;;;-144.99;93.43;52603.00;5071480;28;19939;-76
2023/01/20 07:30:29;;;;;;;;;;;;;;;-144.99;92.89;52586.69;5072089;28;19972;-76
2023/01/20 07:32:56;;;;;;;;;;;;;;;-144.99;92.81;52541.84;5071312;28;19947;-76
2023/01/20 07:35:22;;;;;;;;;;;;;;;-144.99;92.35;52562.25;5068933;28;19970;-75
2023/01/20 07:37:50;;;;;;;;;;;;;;;-144.99;92.56;52586.69;5071072;28;19974;-76
2023/01/20 07:40:17;;;;;;;;;;;;;;;-144.99;93.82;52558.16;5071321;28;19932;-77
2023/01/20 07:42:43;;;;;;;;;;;;;;;-144.99;93.82;52607.09;5071078;28;19925;-76
2023/01/20 07:45:10;;;;;;;;;;;;;;;-144.99;93.63;52582.63;5069768;28;20046;-74
2023/01/20 07:47:37;;;;;;;;;;;;;;;-144.99;93.67;52578.53;5071225;28;19979;-75
2023/01/20 07:50:03;;;;;;;;;;;;;;;-144.99;93.03;52580.59;5071404;28;19928;-75
2023/01/20 07:52:30;;;;;;;;;;;;;;;-144.99;93.59;52584.66;5069563;28;19971;-76
2023/01/20 07:54:58;;;;;;;;;;;;;;;-144.99;93.24;52570.38;5070802;28;20396;-75
2023/01/20 07:57:24;;;;;;;;;;;;;;;-144.99;92.56;52582.63;5071240;28;19924;-75
2023/01/20 07:59:51;;;;;;;;;;;;;;;-144.99;92.72;52558.16;5071109;28;20272;-76
2023/01/20 08:02:17;;;;;;;;;;;;;;;-144.99;92.68;52570.38;5067978;28;19929;-76
2023/01/20 08:04:44;;;;;;;;;;;;;;;-144.99;92.59;52562.25;5069948;28;19986;-76
2023/01/20 08:07:10;;;;;;;;;;;;;;;-144.99;92.45;52541.84;5072794;28;19978;-76
2023/01/20 08:09:39;;;;;;;;;;;;;;;-144.99;92.68;52605.03;5085515;28;19939;-76
2023/01/20 08:12:07;;;;;;;;;;;;;;;-144.99;91.93;52594.84;5086034;28;19928;-76
2023/01/20 08:14:33;;;;;;;;;;;;;;;-144.99;91.92;52651.94;5080812;28;20418;-76
2023/01/20 08:17:00;;;;;;;;;;;;;;;-144.99;90.88;52594.84;5085078;28;19928;-76
2023/01/20 08:19:28;;;;;;;;;;;;;;;-144.99;90.13;52541.84;5092960;28;19920;-76
2023/01/20 08:21:54;;;;;;;;;;;;;;;-144.99;90.07;52580.59;5095171;28;19920;-76
2023/01/20 08:24:21;;;;;;;;;;;;;;;-144.99;89.56;52545.94;5093709;28;19947;-76
2023/01/20 08:26:47;;;;;;;;;;;;;;;-144.99;90.69;52547.97;5093535;28;19955;-76
2023/01/20 08:29:15;;;;;;;;;;;;;;;-144.99;90.39;52590.78;5094024;28;19937;-75
2023/01/20 08:31:41;;;;;;;;;;;;;;;-144.99;89.85;52550.00;5093223;28;19978;-75
2023/01/20 08:34:08;;;;;;;;;;;;;;;-144.99;89.07;52574.47;5074761;28;20450;-75
2023/01/20 08:36:35;;;;;;;;;;;;;;;-144.99;89.74;52578.53;5075073;28;19989;-76
2023/01/20 08:39:04;;;;;;;;;;;;;;;-144.99;89.78;52562.25;5074244;28;19928;-75
2023/01/20 08:41:31;;;;;;;;;;;;;;;-144.99;89.50;52537.78;5074235;28;19978;-75
2023/01/20 08:43:58;;;;;;;;;;;;;;;-144.99;89.51;52623.38;5073801;28;19931;-75
2023/01/20 08:46:26;;;;;;;;;;;;;;;-144.99;88.95;52578.53;5072115;28;19924;-76
2023/01/20 08:48:53;;;;;;;;;;;;;;;-144.99;89.24;52586.69;5073937;28;19932;-76
2023/01/20 08:51:21;;;;;;;;;;;;;;;-144.99;88.67;52592.81;5073872;28;19929;-76
2023/01/20 08:53:48;;;;;;;;;;;;;;;-144.99;88.49;52566.31;5072656;28;20343;-76
2023/01/20 08:56:15;;;;;;;;;;;;;;;-144.99;88.47;52562.25;5076160;28;20023;-76
2023/01/20 08:58:41;;;;;;;;;;;;;;;-144.99;88.05;52586.69;5074244;28;19928;-76
2023/01/20 09:01:08;;;;;;;;;;;;;;;-144.99;87.38;52537.78;5073536;28;19981;-76
2023/01/20 09:03:36;;;;;;;;;;;;;;;-144.99;86.67;52562.25;5072688;28;20387;-76
2023/01/20 09:06:03;;;;;;;;;;;;;;;-144.99;86.33;52590.78;5067775;28;19960;-76
2023/01/20 09:08:29;;;;;;;;;;;;;;;-144.99;85.86;52562.25;5074047;28;19948;-76
2023/01/20 09:11:01;;;;;;;;;;;;;;;-144.99;85.57;52586.69;5071305;28;19932;-76
2023/01/20 09:13:27;;;;;;;;;;;;;;;-144.99;85.17;52562.25;5074243;28;19936;-76
2023/01/20 09:15:54;;;;;;;;;;;;;;;-144.99;84.15;52558.16;5074073;28;19924;-76
2023/01/20 09:18:20;;;;;;;;;;;;;;;-144.99;83.94;52545.94;5074277;28;19971;-76
2023/01/20 09:20:48;;;;;;;;;;;;;;;-144.99;84.05;52547.97;5073140;28;20000;-76
2023/01/20 09:23:15;;;;;;;;;;;;;;;-144.99;84.16;52578.53;5073408;28;20022;-76
2023/01/20 09:25:41;;;;;;;;;;;;;;;-144.99;83.82;52543.91;5073590;28;19936;-76
2023/01/20 09:28:08;;;;;;;;;;;;;;;-144.99;83.18;52545.94;5073204;28;19971;-77
2023/01/20 09:30:36;;;;;;;;;;;;;;;-144.99;82.94;52594.84;5072545;28;19981;-75
2023/01/20 09:33:02;;;;;;;;;;;;;;;-144.99;83.09;52568.34;5073326;28;20029;-75
2023/01/20 09:35:29;;;;;;;;;;;;;;;-144.99;83.09;52578.53;5073432;28;19963;-76
2023/01/20 09:46:21;;;;;;;;;;;;;;;-144.99;82.25;52541.84;5073810;28;19959;-76
2023/01/20 09:54:29;;;;;;;;;;;;;;;-144.99;81.72;52570.38;5072786;28;20425;-76
2023/01/20 09:57:00;;;;;;;;;;;;;;;-144.99;81.79;52521.47;5073984;28;19947;-76
2023/01/20 09:59:27;;;;;;;;;;;;;;;-144.99;81.90;52586.69;5073223;28;19985;-77
2023/01/20 10:01:57;;;;;;;;;;;;;;;-144.99;81.61;52545.94;5070410;28;19931;-78
2023/01/20 10:04:25;;;;;;;;;;;;;;;-144.99;81.22;52558.16;5072751;28;19928;-77
2023/01/20 10:06:54;;;;;;;;;;;;;;;-144.99;80.83;52570.38;5073201;28;19958;-77
2023/01/20 10:09:24;;;;;;;;;;;;;;;-144.99;80.92;52556.13;5072002;28;20355;-77
2023/01/20 10:11:55;;;;;;;;;;;;;;;-144.99;80.11;52578.53;5071537;28;19963;-77
2023/01/20 10:14:24;;;;;;;;;;;;;;;-144.99;79.94;52572.44;5071834;28;20019;-74
2023/01/20 10:16:53;;;;;;;;;;;;;;;-144.99;79.46;52570.38;5075085;28;19952;-75
2023/01/20 10:19:25;;;;;;;;;;;;;;;-144.99;78.90;52562.25;5078240;28;20427;-75
2023/01/20 10:21:54;;;;;;;;;;;;;;;-144.99;78.57;52562.25;5071979;28;19932;-75
2023/01/20 10:24:24;;;;;;;;;;;;;;;-144.99;78.13;52562.25;5071280;28;20010;-75
2023/01/20 10:26:54;;;;;;;;;;;;;;;-144.99;77.48;52554.09;5072208;28;20465;-76
2023/01/20 10:29:27;;;;;;;;;;;;;;;-144.99;77.21;52545.94;5072157;28;19943;-75
2023/01/20 10:31:58;;;;;;;;;;;;;;;-144.99;76.29;52545.94;5070523;28;20384;-75
2023/01/20 10:34:26;;;;;;;;;;;;;;;-144.99;74.81;52529.63;5071701;28;20594;-76
2023/01/20 10:36:59;;;;;;;;;;;;;;;-144.99;73.66;52545.94;5073079;28;20021;-75
2023/01/20 10:39:28;;;;;;;;;;;;;;;-144.99;72.10;52497.00;5080729;28;19963;-75
2023/01/20 10:42:01;;;;;;;;;;;;;;;-144.99;69.71;52586.69;5093368;28;19928;-76
2023/01/20 10:44:28;;;;;;;;;;;;;;;-144.99;69.13;52521.47;5083964;28;19930;-76
2023/01/20 10:47:06;;;;;;;;;;;;;;;-144.99;68.42;52474.59;5091208;28;20217;-76
2023/01/20 10:49:48;;;;;;;;;;;;;;;-144.99;65.32;52415.47;5079587;28;19916;-76
2023/01/20 10:52:22;;;;;;;;;;;;;;;-144.99;61.45;52446.06;5085921;28;19974;-76
2023/01/20 10:54:52;;;;;;;;;;;;;;;-144.99;59.96;52490.91;5087822;28;20350;-77
2023/01/20 10:57:20;;;;;;;;;;;;;;;-144.99;59.60;52386.94;5085709;28;19975;-76
2023/01/20 10:59:49;;;;;;;;;;;;;;;-144.99;58.50;52407.31;5076369;28;19924;-76
2023/01/20 11:02:19;;;;;;;;;;;;;;;-144.99;56.65;52427.72;5070919;28;19928;-76
2023/01/20 11:04:49;;;;;;;;;;;;;;;-144.99;56.67;52503.13;5071367;28;20536;-76
2023/01/20 11:07:17;;;;;;;;;;;;;;;-144.99;57.62;52480.72;5072143;28;20395;-76
2023/01/20 11:09:44;;;;;;;;;;;;;;;-144.99;58.84;52501.09;5079463;28;19981;-76
2023/01/20 11:12:12;;;;;;;;;;;;;;;-144.99;59.17;52505.16;5082980;28;19954;-76
2023/01/20 11:14:41;;;;;;;;;;;;;;;-144.99;59.71;52533.69;5085835;28;19981;-77
2023/01/20 11:17:12;;;;;;;;;;;;;;;-144.99;61.15;52533.69;5087089;28;19924;-77
2023/01/20 11:19:46;;;;;;;;;;;;;;;-144.99;62.29;52525.56;5082283;28;19924;-77
2023/01/20 11:22:19;;;;;;;;;;;;;;;-144.99;63.24;52566.31;5090085;28;19913;-77
2023/01/20 11:24:46;;;;;;;;;;;;;;;-144.99;64.09;52558.16;5094845;28;19909;-78
2023/01/20 11:27:15;;;;;;;;;;;;;;;-144.99;64.66;52572.44;5093163;28;19939;-77
2023/01/20 11:29:44;;;;;;;;;;;;;;;-144.99;65.04;52545.94;5073991;28;19947;-76
2023/01/20 11:32:39;;;;;;;;;;;;;;;-144.99;64.84;52525.56;5069723;28;20303;-76
2023/01/20 11:35:19;;;;;;;;;;;;;;;-144.99;65.09;52580.59;5026163;28;20519;-75
2023/01/20 11:37:46;;;;;;;;;;;;;;;-144.99;65.68;52550.00;5071131;28;20023;-76
2023/01/20 11:40:20;;;;;;;;;;;;;;;-144.99;66.73;52517.41;5069760;28;19925;-76
2023/01/20 11:42:48;;;;;;;;;;;;;;;-144.99;66.80;52568.34;5069828;28;20023;-76
2023/01/20 11:45:27;;;;;;;;;;;;;;;-144.99;67.79;52560.19;5071017;28;19929;-76
2023/01/20 11:48:05;;;;;;;;;;;;;;;-144.99;68.88;52580.59;5067622;28;19925;-76
2023/01/20 11:50:39;;;;;;;;;;;;;;;-144.99;69.59;52537.78;5068947;28;19924;-77
2023/01/20 11:53:12;;;;;;;;;;;;;;;-144.99;69.64;52590.78;5070629;28;19999;-76
2023/01/20 11:55:45;;;;;;;;;;;;;;;-144.99;69.94;52564.28;5070159;28;20042;-77
2023/01/20 11:58:16;;;;;;;;;;;;;;;-144.99;69.79;52513.31;5071111;28;19935;-76
2023/01/20 12:00:44;;;;;;;;;;;;;;;-144.99;69.53;52541.84;5069248;28;20211;-76
2023/01/20 12:03:24;;;;;;;;;;;;;;;-144.99;69.73;52550.00;5095692;22;19938;-78
2023/01/20 12:05:56;;;;;;;;;;;;;;;-144.99;69.69;52574.47;5082476;28;19923;-76
2023/01/20 12:08:26;;;;;;;;;;;;;;;-144.99;69.27;52509.25;5083293;28;19924;-78
2023/01/20 12:10:55;;;;;;;;;;;;;;;-144.99;68.70;52541.84;5084591;28;19963;-76
2023/01/20 12:13:25;;;;;;;;;;;;;;;-144.99;68.73;52529.63;5087585;28;19936;-76
2023/01/20 12:15:55;;;;;;;;;;;;;;;-144.99;67.96;52529.63;5079364;28;19959;-78
2023/01/20 12:18:29;;;;;;;;;;;;;;;-144.99;67.66;52501.09;5077838;28;19969;-76
2023/01/20 12:21:00;;;;;;;;;;;;;;;-144.99;68.14;52476.63;5067241;28;19967;-76
2023/01/20 12:23:33;;;;;;;;;;;;;;;-144.99;66.09;52505.16;5074375;28;19959;-77
2023/01/20 12:26:01;;;;;;;;;;;;;;;-144.99;63.87;52423.63;5078536;28;20002;-77
2023/01/20 12:28:31;;;;;;;;;;;;;;;-144.99;62.46;52505.16;5059026;28;19955;-77
2023/01/20 12:31:02;;;;;;;;;;;;;;;-144.99;60.86;52431.78;5064812;28;19948;-77
2023/01/20 12:33:30;;;;;;;;;;;;;;;-144.99;56.85;52329.88;5078837;28;19924;-75
2023/01/20 12:36:16;;;;;;;;;;;;;;;-144.99;53.55;52315.59;5085901;28;19947;-75
2023/01/20 12:38:48;;;;;;;;;;;;;;;-144.99;50.31;52342.09;5065784;28;19925;-76
2023/01/20 12:41:17;;;;;;;;;;;;;;;-144.99;49.75;52289.13;5068156;28;19971;-76
2023/01/20 12:43:53;;;;;;;;;;;;;;;-144.99;48.86;52285.03;5076290;28;19932;-76
2023/01/20 12:46:26;;;;;;;;;;;;;;;-144.99;47.60;52297.25;5083491;28;19925;-76
2023/01/20 12:48:56;;;;;;;;;;;;;;;-144.99;46.71;52244.28;5073687;28;19925;-74
2023/01/20 12:51:32;;;;;;;;;;;;;;;-144.99;45.77;52246.31;5060600;28;20003;-75